KACB/ACB METAR and TAF weather

Enter ICAO airport designator
Station Type Date Time Source
KACB METAR 2020/07/10 17:56 UTC NOAA

KACB 101756Z AUTO 26004KT 10SM SCT017 BKN023 OVC037 26/19 A2975 RMK AO2 T02550194 10255 20215


Station Type Date Time Source
KACB Decoded METAR 2020/07/10 17:56 UTC NOAA

Bellaire, Antrim County Airport, MI, United States (KACB) 44-59-18N 085-11-54W
Jul 10, 2020 - 01:56 PM EDT / 2020.07.10 1756 UTC
Wind: from the W (260 degrees) at 5 MPH (4 KT):0
Visibility: 10 mile(s):0
Sky conditions: overcast
Temperature: 77.9 F (25.5 C)
Dew Point: 66.9 F (19.4 C)
Relative Humidity: 69%
Pressure (altimeter): 29.75 in. Hg (1007 hPa)
ob: KACB 101756Z AUTO 26004KT 10SM SCT017 BKN023 OVC037 26/19 A2975 RMK AO2 T02550194 10255 20215
cycle: 18

Station Type Date Time Source
KACB TAF UTC NOAA

Error!

Example: see airport list